RYR4LB LBSF-EGSS
Flight info
| Callsign | RYR4LB |
|---|---|
| Flight time | 2h 54m |
| Altitude | 38000 |
| Route | OGOTA T228 UTEKA DCT TISAK DCT TONDO DCT GITAS DCT TEKNO DCT BEGLA DCT FMD DCT DITIS DCT OKG DCT VELIS DCT SWALM DCT TORNU DCT BATAK DCT NOGRO M40 RINIS |
| Aircraft | B738/M-SDE2E3FGHIRWXY/LB1 |
Departure
| Time | 2026-05-06 11:22 |
|---|---|
| Airport | Sofia Airport (LBSF) |
Arrival
| Time | 2026-05-06 14:16 |
|---|---|
| Airport | London Stansted Airport (EGSS) |
| Time | Latitude | Longitude | Altitude | Speed | Heading |
|---|---|---|---|---|---|
| 2026-05-06 11:02 | 42.68996 | 23.40701 | 1752 ft | 0 kts | 196° |
| 2026-05-06 11:15 | 42.68992 | 23.40700 | 1752 ft | 2 kts | 196° |
| 2026-05-06 11:15 | 42.68969 | 23.40690 | 1752 ft | 5 kts | 196° |
| 2026-05-06 11:15 | 42.68943 | 23.40717 | 1749 ft | 6 kts | 108° |
| 2026-05-06 11:16 | 42.68928 | 23.40775 | 1746 ft | 8 kts | 108° |
| 2026-05-06 11:16 | 42.68911 | 23.40854 | 1750 ft | 10 kts | 105° |
| 2026-05-06 11:16 | 42.68924 | 23.40952 | 1746 ft | 12 kts | 72° |
| 2026-05-06 11:16 | 42.68951 | 23.41068 | 1748 ft | 14 kts | 72° |
| 2026-05-06 11:17 | 42.68990 | 23.41194 | 1747 ft | 15 kts | 51° |
| 2026-05-06 11:17 | 42.69080 | 23.41217 | 1750 ft | 15 kts | 342° |
| 2026-05-06 11:17 | 42.69187 | 23.41169 | 1748 ft | 17 kts | 342° |
| 2026-05-06 11:17 | 42.69305 | 23.41175 | 1752 ft | 18 kts | 11° |
| 2026-05-06 11:18 | 42.69431 | 23.41209 | 1749 ft | 18 kts | 11° |
| 2026-05-06 11:18 | 42.69482 | 23.41316 | 1748 ft | 15 kts | 93° |
| 2026-05-06 11:18 | 42.69474 | 23.41460 | 1752 ft | 16 kts | 94° |
| 2026-05-06 11:18 | 42.69465 | 23.41624 | 1752 ft | 19 kts | 94° |
| 2026-05-06 11:19 | 42.69453 | 23.41808 | 1750 ft | 21 kts | 95° |
| 2026-05-06 11:19 | 42.69441 | 23.42017 | 1752 ft | 23 kts | 95° |
| 2026-05-06 11:19 | 42.69430 | 23.42240 | 1752 ft | 24 kts | 94° |
| 2026-05-06 11:19 | 42.69416 | 23.42472 | 1750 ft | 26 kts | 94° |
| 2026-05-06 11:20 | 42.69402 | 23.42724 | 1746 ft | 27 kts | 94° |
| 2026-05-06 11:20 | 42.69387 | 23.42979 | 1752 ft | 28 kts | 94° |
| 2026-05-06 11:20 | 42.69370 | 23.43246 | 1752 ft | 29 kts | 95° |
| 2026-05-06 11:20 | 42.69353 | 23.43522 | 1752 ft | 30 kts | 95° |
| 2026-05-06 11:21 | 42.69337 | 23.43795 | 1747 ft | 27 kts | 95° |
| 2026-05-06 11:21 | 42.69379 | 23.43946 | 1752 ft | 19 kts | 7° |
| 2026-05-06 11:21 | 42.69499 | 23.43950 | 1747 ft | 14 kts | 334° |
| 2026-05-06 11:21 | 42.69526 | 23.43816 | 1746 ft | 21 kts | 274° |
| 2026-05-06 11:22 | 42.69557 | 23.43293 | 1753 ft | 90 kts | 275° |
| 2026-05-06 11:22 | 42.69624 | 23.42150 | 1749 ft | 150 kts | 275° |
| 2026-05-06 11:22 | 42.69709 | 23.40580 | 2084 ft | 172 kts | 275° |
| 2026-05-06 11:22 | 42.69793 | 23.38923 | 2817 ft | 177 kts | 275° |
| 2026-05-06 11:23 | 42.69894 | 23.37262 | 3625 ft | 175 kts | 276° |
| 2026-05-06 11:23 | 42.70169 | 23.35657 | 4239 ft | 179 kts | 308° |
| 2026-05-06 11:23 | 42.71206 | 23.34824 | 4818 ft | 177 kts | 358° |
| 2026-05-06 11:23 | 42.72453 | 23.34982 | 5369 ft | 188 kts | 5° |
| 2026-05-06 11:24 | 42.73832 | 23.34860 | 5684 ft | 209 kts | 352° |
| 2026-05-06 11:24 | 42.75356 | 23.34623 | 5841 ft | 232 kts | 355° |
| 2026-05-06 11:24 | 42.77021 | 23.34382 | 6161 ft | 248 kts | 354° |
| 2026-05-06 11:24 | 42.78814 | 23.34090 | 6417 ft | 269 kts | 353° |
| 2026-05-06 11:25 | 42.80699 | 23.33719 | 7047 ft | 277 kts | 345° |
| 2026-05-06 11:25 | 42.82425 | 23.32586 | 7880 ft | 277 kts | 329° |
| 2026-05-06 11:25 | 42.84069 | 23.31178 | 8652 ft | 281 kts | 328° |
| 2026-05-06 11:25 | 42.85727 | 23.29734 | 9422 ft | 284 kts | 328° |
| 2026-05-06 11:26 | 42.87404 | 23.28278 | 10193 ft | 287 kts | 328° |
| 2026-05-06 11:26 | 42.89148 | 23.26776 | 10504 ft | 308 kts | 328° |
| 2026-05-06 11:26 | 42.91019 | 23.25129 | 10673 ft | 331 kts | 324° |
| 2026-05-06 11:26 | 42.92840 | 23.23180 | 11126 ft | 343 kts | 320° |
| 2026-05-06 11:27 | 42.94666 | 23.21053 | 11858 ft | 346 kts | 320° |
| 2026-05-06 11:27 | 42.96486 | 23.18886 | 12609 ft | 349 kts | 319° |
| 2026-05-06 11:27 | 42.98320 | 23.16701 | 13387 ft | 351 kts | 320° |
| 2026-05-06 11:27 | 43.00175 | 23.14505 | 14058 ft | 354 kts | 320° |
| 2026-05-06 11:28 | 43.02045 | 23.12305 | 14744 ft | 355 kts | 320° |
| 2026-05-06 11:28 | 43.03931 | 23.10095 | 15397 ft | 359 kts | 320° |
| 2026-05-06 11:28 | 43.05839 | 23.07868 | 16054 ft | 363 kts | 320° |
| 2026-05-06 11:28 | 43.07768 | 23.05621 | 16699 ft | 365 kts | 320° |
| 2026-05-06 11:29 | 43.09713 | 23.03357 | 17325 ft | 369 kts | 320° |
| 2026-05-06 11:29 | 43.11677 | 23.01069 | 17950 ft | 373 kts | 320° |
| 2026-05-06 11:29 | 43.13658 | 22.98765 | 18577 ft | 375 kts | 320° |
| 2026-05-06 11:29 | 43.15645 | 22.96448 | 19175 ft | 376 kts | 320° |
| 2026-05-06 11:30 | 43.17643 | 22.94117 | 19763 ft | 378 kts | 320° |
| 2026-05-06 11:30 | 43.19647 | 22.91777 | 20333 ft | 379 kts | 320° |
| 2026-05-06 11:30 | 43.21659 | 22.89424 | 20902 ft | 382 kts | 320° |
| 2026-05-06 11:30 | 43.23687 | 22.87053 | 21415 ft | 385 kts | 320° |
| 2026-05-06 11:31 | 43.25729 | 22.84663 | 21925 ft | 387 kts | 320° |
| 2026-05-06 11:31 | 43.27780 | 22.82261 | 22443 ft | 389 kts | 320° |
| 2026-05-06 11:31 | 43.29839 | 22.79846 | 22966 ft | 390 kts | 320° |
| 2026-05-06 11:31 | 43.31909 | 22.77417 | 23468 ft | 392 kts | 320° |
| 2026-05-06 11:32 | 43.33988 | 22.74975 | 23890 ft | 395 kts | 320° |
| 2026-05-06 11:32 | 43.36075 | 22.72521 | 23972 ft | 393 kts | 320° |
| 2026-05-06 11:32 | 43.38150 | 22.70080 | 24004 ft | 392 kts | 320° |
| 2026-05-06 11:32 | 43.40230 | 22.67630 | 24021 ft | 396 kts | 320° |
| 2026-05-06 11:33 | 43.42331 | 22.65153 | 24005 ft | 397 kts | 320° |
| 2026-05-06 11:33 | 43.44420 | 22.62688 | 24021 ft | 395 kts | 320° |
| 2026-05-06 11:33 | 43.46511 | 22.60217 | 24009 ft | 395 kts | 320° |
| 2026-05-06 11:33 | 43.48593 | 22.57754 | 24002 ft | 394 kts | 320° |
| 2026-05-06 11:34 | 43.50670 | 22.55295 | 24017 ft | 395 kts | 320° |
| 2026-05-06 11:34 | 43.52757 | 22.52822 | 24011 ft | 395 kts | 320° |
| 2026-05-06 11:34 | 43.54843 | 22.50349 | 23998 ft | 396 kts | 320° |
| 2026-05-06 11:34 | 43.56926 | 22.47876 | 24007 ft | 396 kts | 320° |
| 2026-05-06 11:35 | 43.59018 | 22.45392 | 24014 ft | 397 kts | 320° |
| 2026-05-06 11:35 | 43.61109 | 22.42906 | 24011 ft | 397 kts | 320° |
| 2026-05-06 11:35 | 43.63205 | 22.40411 | 24012 ft | 398 kts | 319° |
| 2026-05-06 11:35 | 43.65279 | 22.37939 | 24011 ft | 399 kts | 320° |
| 2026-05-06 11:36 | 43.67384 | 22.35429 | 24010 ft | 400 kts | 319° |
| 2026-05-06 11:36 | 43.69494 | 22.32910 | 24006 ft | 401 kts | 319° |
| 2026-05-06 11:36 | 43.71609 | 22.30383 | 24016 ft | 402 kts | 319° |
| 2026-05-06 11:36 | 43.73719 | 22.27858 | 24005 ft | 402 kts | 319° |
| 2026-05-06 11:37 | 43.75837 | 22.25324 | 24006 ft | 402 kts | 319° |
| 2026-05-06 11:37 | 43.77948 | 22.22793 | 24005 ft | 402 kts | 319° |
| 2026-05-06 11:37 | 43.80059 | 22.20260 | 24007 ft | 401 kts | 319° |
| 2026-05-06 11:37 | 43.82164 | 22.17733 | 24003 ft | 401 kts | 319° |
| 2026-05-06 11:38 | 43.84275 | 22.15196 | 24009 ft | 401 kts | 319° |
| 2026-05-06 11:38 | 43.86384 | 22.12660 | 24009 ft | 401 kts | 319° |
| 2026-05-06 11:38 | 43.88487 | 22.10128 | 24013 ft | 401 kts | 319° |
| 2026-05-06 11:38 | 43.90590 | 22.07592 | 24004 ft | 401 kts | 319° |
| 2026-05-06 11:39 | 43.92692 | 22.05056 | 24008 ft | 401 kts | 319° |
| 2026-05-06 11:39 | 43.94799 | 22.02512 | 24002 ft | 402 kts | 319° |
| 2026-05-06 11:39 | 43.96903 | 21.99967 | 24002 ft | 402 kts | 319° |
| 2026-05-06 11:39 | 43.99015 | 21.97412 | 24007 ft | 402 kts | 319° |
| 2026-05-06 11:40 | 44.01123 | 21.94858 | 23994 ft | 403 kts | 319° |
| 2026-05-06 11:40 | 44.03234 | 21.92299 | 23993 ft | 403 kts | 319° |
| 2026-05-06 11:40 | 44.05344 | 21.89739 | 24001 ft | 403 kts | 319° |
| 2026-05-06 11:40 | 44.07458 | 21.87171 | 24003 ft | 404 kts | 319° |
| 2026-05-06 11:41 | 44.09578 | 21.84592 | 24026 ft | 407 kts | 319° |
| 2026-05-06 11:41 | 44.11715 | 21.81990 | 24328 ft | 410 kts | 318° |
| 2026-05-06 11:41 | 44.13864 | 21.79371 | 24813 ft | 410 kts | 318° |
| 2026-05-06 11:41 | 44.16009 | 21.76753 | 25253 ft | 410 kts | 318° |
| 2026-05-06 11:42 | 44.18159 | 21.74129 | 25642 ft | 412 kts | 318° |
| 2026-05-06 11:42 | 44.20325 | 21.71481 | 26007 ft | 415 kts | 318° |
| 2026-05-06 11:42 | 44.22500 | 21.68820 | 26365 ft | 417 kts | 318° |
| 2026-05-06 11:42 | 44.24684 | 21.66146 | 26725 ft | 419 kts | 318° |
| 2026-05-06 11:43 | 44.26880 | 21.63453 | 27088 ft | 421 kts | 318° |
| 2026-05-06 11:43 | 44.29083 | 21.60749 | 27446 ft | 423 kts | 318° |
| 2026-05-06 11:43 | 44.31298 | 21.58027 | 27806 ft | 425 kts | 317° |
| 2026-05-06 11:44 | 44.35757 | 21.52542 | 28468 ft | 429 kts | 317° |
| 2026-05-06 11:44 | 44.37996 | 21.49783 | 28810 ft | 431 kts | 317° |
| 2026-05-06 11:44 | 44.40249 | 21.47002 | 29129 ft | 433 kts | 317° |
| 2026-05-06 11:44 | 44.42480 | 21.44247 | 29433 ft | 435 kts | 317° |
| 2026-05-06 11:45 | 44.44744 | 21.41447 | 29747 ft | 436 kts | 317° |
| 2026-05-06 11:45 | 44.47052 | 21.38591 | 30061 ft | 437 kts | 317° |
| 2026-05-06 11:45 | 44.49298 | 21.35809 | 30452 ft | 435 kts | 317° |
| 2026-05-06 11:45 | 44.51554 | 21.33011 | 30894 ft | 431 kts | 317° |
| 2026-05-06 11:46 | 44.53791 | 21.30234 | 31270 ft | 429 kts | 317° |
| 2026-05-06 11:46 | 44.56028 | 21.27454 | 31585 ft | 429 kts | 316° |
| 2026-05-06 11:46 | 44.58257 | 21.24679 | 31912 ft | 428 kts | 316° |
| 2026-05-06 11:46 | 44.60480 | 21.21911 | 32279 ft | 426 kts | 316° |
| 2026-05-06 11:47 | 44.62688 | 21.19157 | 32654 ft | 424 kts | 316° |
| 2026-05-06 11:47 | 44.64891 | 21.16407 | 32999 ft | 423 kts | 316° |
| 2026-05-06 11:47 | 44.67085 | 21.13666 | 33328 ft | 422 kts | 316° |
| 2026-05-06 11:47 | 44.69271 | 21.10931 | 33635 ft | 420 kts | 316° |
| 2026-05-06 11:48 | 44.71450 | 21.08203 | 33967 ft | 419 kts | 316° |
| 2026-05-06 11:48 | 44.73618 | 21.05485 | 34255 ft | 417 kts | 316° |
| 2026-05-06 11:48 | 44.75782 | 21.02769 | 34482 ft | 417 kts | 316° |
| 2026-05-06 11:48 | 44.77945 | 21.00051 | 34700 ft | 417 kts | 316° |
| 2026-05-06 11:49 | 44.80107 | 20.97332 | 34950 ft | 416 kts | 316° |
| 2026-05-06 11:49 | 44.82257 | 20.94626 | 35185 ft | 415 kts | 315° |
| 2026-05-06 11:49 | 44.84414 | 20.91907 | 35361 ft | 416 kts | 315° |
| 2026-05-06 11:49 | 44.86563 | 20.89195 | 35563 ft | 415 kts | 315° |
| 2026-05-06 11:50 | 44.88718 | 20.86474 | 35799 ft | 414 kts | 315° |
| 2026-05-06 11:50 | 44.90857 | 20.83770 | 35990 ft | 414 kts | 315° |
| 2026-05-06 11:50 | 44.95175 | 20.78301 | 35982 ft | 416 kts | 315° |
| 2026-05-06 11:51 | 44.99460 | 20.72866 | 35973 ft | 413 kts | 315° |
| 2026-05-06 11:51 | 45.03731 | 20.67436 | 35976 ft | 413 kts | 315° |
| 2026-05-06 11:52 | 45.07994 | 20.62003 | 35970 ft | 413 kts | 315° |
| 2026-05-06 11:52 | 45.12259 | 20.56558 | 35971 ft | 413 kts | 314° |
| 2026-05-06 11:53 | 45.16516 | 20.51111 | 35976 ft | 412 kts | 314° |
| 2026-05-06 11:53 | 45.20766 | 20.45661 | 35973 ft | 411 kts | 314° |
| 2026-05-06 11:54 | 45.24968 | 20.40263 | 35971 ft | 410 kts | 314° |
| 2026-05-06 11:54 | 45.29186 | 20.34831 | 35978 ft | 410 kts | 314° |
| 2026-05-06 11:55 | 45.33405 | 20.29388 | 35971 ft | 409 kts | 314° |
| 2026-05-06 11:55 | 45.37618 | 20.23940 | 35976 ft | 409 kts | 314° |
| 2026-05-06 11:56 | 45.41825 | 20.18488 | 35974 ft | 410 kts | 313° |
| 2026-05-06 11:56 | 45.46040 | 20.13014 | 35976 ft | 410 kts | 313° |
| 2026-05-06 11:57 | 45.50255 | 20.07530 | 35965 ft | 411 kts | 313° |
| 2026-05-06 11:57 | 45.54478 | 20.02022 | 35964 ft | 412 kts | 313° |
| 2026-05-06 11:58 | 45.58701 | 19.96504 | 35967 ft | 412 kts | 313° |
| 2026-05-06 11:58 | 45.62934 | 19.90961 | 35968 ft | 413 kts | 313° |
| 2026-05-06 11:59 | 45.67141 | 19.85440 | 35962 ft | 414 kts | 313° |
| 2026-05-06 11:59 | 45.71376 | 19.79869 | 35962 ft | 414 kts | 313° |
| 2026-05-06 12:00 | 45.75617 | 19.74280 | 35964 ft | 414 kts | 313° |
| 2026-05-06 12:00 | 45.79856 | 19.68681 | 35957 ft | 415 kts | 313° |
| 2026-05-06 12:01 | 45.84099 | 19.63064 | 35963 ft | 415 kts | 313° |
| 2026-05-06 12:01 | 45.88333 | 19.57446 | 35956 ft | 415 kts | 313° |
| 2026-05-06 12:02 | 45.92568 | 19.51815 | 35951 ft | 415 kts | 313° |
| 2026-05-06 12:02 | 45.96795 | 19.46183 | 35919 ft | 414 kts | 312° |
| 2026-05-06 12:03 | 46.01014 | 19.40549 | 35954 ft | 414 kts | 312° |
| 2026-05-06 12:03 | 46.04517 | 19.35869 | 35952 ft | 414 kts | 313° |
| 2026-05-06 12:04 | 46.08962 | 19.30550 | 35953 ft | 416 kts | 316° |
| 2026-05-06 12:04 | 46.13523 | 19.25401 | 35946 ft | 417 kts | 317° |
| 2026-05-06 12:05 | 46.18076 | 19.20233 | 35948 ft | 416 kts | 316° |
| 2026-05-06 12:05 | 46.22615 | 19.15023 | 35946 ft | 417 kts | 316° |
| 2026-05-06 12:06 | 46.27143 | 19.09794 | 35944 ft | 417 kts | 316° |
| 2026-05-06 12:06 | 46.31674 | 19.04545 | 35939 ft | 418 kts | 316° |
| 2026-05-06 12:07 | 46.36213 | 18.99275 | 35934 ft | 418 kts | 316° |
| 2026-05-06 12:07 | 46.40754 | 18.93993 | 35935 ft | 419 kts | 316° |
| 2026-05-06 12:08 | 46.45298 | 18.88697 | 35932 ft | 420 kts | 316° |
| 2026-05-06 12:08 | 46.49852 | 18.83375 | 35931 ft | 420 kts | 316° |
| 2026-05-06 12:09 | 46.54406 | 18.78042 | 35926 ft | 421 kts | 316° |
| 2026-05-06 12:09 | 46.58969 | 18.72687 | 35932 ft | 422 kts | 316° |
| 2026-05-06 12:10 | 46.63543 | 18.67308 | 35928 ft | 423 kts | 316° |
| 2026-05-06 12:10 | 46.68095 | 18.61942 | 35923 ft | 424 kts | 316° |
| 2026-05-06 12:11 | 46.72676 | 18.56530 | 35923 ft | 424 kts | 316° |
| 2026-05-06 12:11 | 46.77261 | 18.51101 | 35918 ft | 425 kts | 316° |
| 2026-05-06 12:12 | 46.81840 | 18.45667 | 35919 ft | 424 kts | 316° |
| 2026-05-06 12:12 | 46.86415 | 18.40224 | 35915 ft | 424 kts | 316° |
| 2026-05-06 12:13 | 46.90987 | 18.34773 | 35914 ft | 424 kts | 316° |
| 2026-05-06 12:13 | 46.95551 | 18.29319 | 35913 ft | 423 kts | 316° |
| 2026-05-06 12:14 | 47.00109 | 18.23859 | 35913 ft | 423 kts | 316° |
| 2026-05-06 12:14 | 47.04661 | 18.18396 | 35915 ft | 423 kts | 316° |
| 2026-05-06 12:15 | 47.09109 | 18.12777 | 35909 ft | 421 kts | 313° |
| 2026-05-06 12:15 | 47.13423 | 18.06966 | 35905 ft | 421 kts | 313° |
| 2026-05-06 12:16 | 47.17732 | 18.01156 | 35901 ft | 421 kts | 313° |
| 2026-05-06 12:16 | 47.22063 | 17.95352 | 35895 ft | 421 kts | 313° |
| 2026-05-06 12:17 | 47.26398 | 17.89550 | 35886 ft | 422 kts | 313° |
| 2026-05-06 12:17 | 47.30738 | 17.83733 | 35883 ft | 422 kts | 313° |
| 2026-05-06 12:18 | 47.35082 | 17.77897 | 35887 ft | 422 kts | 313° |
| 2026-05-06 12:18 | 47.39423 | 17.72049 | 35885 ft | 423 kts | 313° |
| 2026-05-06 12:19 | 47.43763 | 17.66187 | 35881 ft | 423 kts | 313° |
| 2026-05-06 12:19 | 47.48073 | 17.60354 | 35877 ft | 423 kts | 312° |
| 2026-05-06 12:20 | 47.52415 | 17.54463 | 35878 ft | 423 kts | 312° |
| 2026-05-06 12:20 | 47.56751 | 17.48566 | 35878 ft | 423 kts | 312° |
| 2026-05-06 12:21 | 47.61085 | 17.42660 | 35870 ft | 424 kts | 312° |
| 2026-05-06 12:21 | 47.65386 | 17.36694 | 35859 ft | 423 kts | 311° |
| 2026-05-06 12:22 | 47.69632 | 17.30641 | 35851 ft | 423 kts | 311° |
| 2026-05-06 12:22 | 47.73880 | 17.24581 | 35841 ft | 424 kts | 311° |
| 2026-05-06 12:23 | 47.78132 | 17.18520 | 35845 ft | 424 kts | 311° |
| 2026-05-06 12:23 | 47.82388 | 17.12443 | 35837 ft | 425 kts | 310° |
| 2026-05-06 12:24 | 47.86339 | 17.05975 | 35843 ft | 421 kts | 305° |
| 2026-05-06 12:24 | 47.90079 | 16.99265 | 35839 ft | 421 kts | 304° |
| 2026-05-06 12:25 | 47.93832 | 16.92555 | 35826 ft | 422 kts | 304° |
| 2026-05-06 12:25 | 47.97614 | 16.85850 | 35817 ft | 422 kts | 304° |
| 2026-05-06 12:26 | 48.01402 | 16.79141 | 35817 ft | 422 kts | 304° |
| 2026-05-06 12:26 | 48.05181 | 16.72428 | 35801 ft | 422 kts | 304° |
| 2026-05-06 12:27 | 48.08944 | 16.65730 | 35799 ft | 420 kts | 304° |
| 2026-05-06 12:27 | 48.12642 | 16.59053 | 35809 ft | 419 kts | 303° |
| 2026-05-06 12:28 | 48.16284 | 16.52259 | 35804 ft | 418 kts | 303° |
| 2026-05-06 12:28 | 48.19915 | 16.45451 | 35803 ft | 418 kts | 303° |
| 2026-05-06 12:29 | 48.23550 | 16.38637 | 35810 ft | 419 kts | 303° |
| 2026-05-06 12:29 | 48.27199 | 16.31791 | 35805 ft | 420 kts | 303° |
| 2026-05-06 12:30 | 48.30846 | 16.24939 | 35804 ft | 420 kts | 302° |
| 2026-05-06 12:30 | 48.34484 | 16.18084 | 35805 ft | 420 kts | 302° |
| 2026-05-06 12:31 | 48.38120 | 16.11218 | 35787 ft | 420 kts | 302° |
| 2026-05-06 12:31 | 48.41753 | 16.04337 | 35804 ft | 420 kts | 302° |
| 2026-05-06 12:32 | 48.45384 | 15.97444 | 35797 ft | 420 kts | 302° |
| 2026-05-06 12:32 | 48.49015 | 15.90530 | 35790 ft | 421 kts | 302° |
| 2026-05-06 12:33 | 48.52647 | 15.83598 | 35781 ft | 421 kts | 302° |
| 2026-05-06 12:33 | 48.56275 | 15.76657 | 35789 ft | 422 kts | 302° |
| 2026-05-06 12:34 | 48.59912 | 15.69679 | 35798 ft | 424 kts | 302° |
| 2026-05-06 12:34 | 48.63560 | 15.62661 | 35796 ft | 425 kts | 302° |
| 2026-05-06 12:35 | 48.67217 | 15.55610 | 35797 ft | 427 kts | 302° |
| 2026-05-06 12:35 | 48.70886 | 15.48515 | 35786 ft | 429 kts | 302° |
| 2026-05-06 12:36 | 48.74555 | 15.41404 | 35789 ft | 428 kts | 302° |
| 2026-05-06 12:36 | 48.78215 | 15.34291 | 35793 ft | 428 kts | 302° |
| 2026-05-06 12:37 | 48.81865 | 15.27176 | 35788 ft | 427 kts | 301° |
| 2026-05-06 12:37 | 48.85509 | 15.20054 | 35789 ft | 426 kts | 301° |
| 2026-05-06 12:38 | 48.89141 | 15.12941 | 35793 ft | 426 kts | 301° |
| 2026-05-06 12:38 | 48.92607 | 15.05681 | 35791 ft | 423 kts | 298° |
| 2026-05-06 12:39 | 48.95905 | 14.98278 | 35797 ft | 423 kts | 297° |
| 2026-05-06 12:39 | 48.99203 | 14.90849 | 35789 ft | 424 kts | 298° |
| 2026-05-06 12:40 | 49.02493 | 14.83475 | 35791 ft | 424 kts | 298° |
| 2026-05-06 12:40 | 49.05837 | 14.75994 | 35807 ft | 425 kts | 298° |
| 2026-05-06 12:41 | 49.09147 | 14.68575 | 35791 ft | 427 kts | 298° |
| 2026-05-06 12:41 | 49.12480 | 14.61090 | 35782 ft | 425 kts | 298° |
| 2026-05-06 12:42 | 49.15788 | 14.53642 | 35790 ft | 422 kts | 297° |
| 2026-05-06 12:42 | 49.19063 | 14.46242 | 35793 ft | 420 kts | 297° |
| 2026-05-06 12:43 | 49.22324 | 14.38851 | 35793 ft | 419 kts | 297° |
| 2026-05-06 12:43 | 49.25574 | 14.31462 | 35796 ft | 419 kts | 297° |
| 2026-05-06 12:44 | 49.28827 | 14.24046 | 35807 ft | 420 kts | 297° |
| 2026-05-06 12:44 | 49.32091 | 14.16584 | 35805 ft | 423 kts | 297° |
| 2026-05-06 12:45 | 49.35378 | 14.09051 | 35801 ft | 426 kts | 297° |
| 2026-05-06 12:46 | 49.40332 | 13.97659 | 35801 ft | 429 kts | 297° |
| 2026-05-06 12:46 | 49.43643 | 13.90019 | 35803 ft | 431 kts | 297° |
| 2026-05-06 12:47 | 49.46962 | 13.82340 | 35800 ft | 432 kts | 297° |
| 2026-05-06 12:47 | 49.50282 | 13.74634 | 35795 ft | 432 kts | 297° |
| 2026-05-06 12:48 | 49.53590 | 13.66936 | 35801 ft | 431 kts | 297° |
| 2026-05-06 12:48 | 49.56884 | 13.59246 | 35804 ft | 430 kts | 297° |
| 2026-05-06 12:49 | 49.60144 | 13.51613 | 35798 ft | 428 kts | 297° |
| 2026-05-06 12:49 | 49.63406 | 13.43955 | 35800 ft | 426 kts | 297° |
| 2026-05-06 12:50 | 49.66653 | 13.36309 | 35803 ft | 425 kts | 297° |
| 2026-05-06 12:50 | 49.69886 | 13.28672 | 35811 ft | 424 kts | 297° |
| 2026-05-06 12:51 | 49.73107 | 13.21042 | 35802 ft | 424 kts | 297° |
| 2026-05-06 12:51 | 49.75783 | 13.14684 | 35802 ft | 424 kts | 297° |
| 2026-05-06 12:52 | 49.78999 | 13.07025 | 35803 ft | 425 kts | 297° |
| 2026-05-06 12:52 | 49.82218 | 12.99336 | 35799 ft | 426 kts | 297° |
| 2026-05-06 12:53 | 49.85444 | 12.91610 | 35787 ft | 427 kts | 297° |
| 2026-05-06 12:53 | 49.88673 | 12.83854 | 35808 ft | 429 kts | 297° |
| 2026-05-06 12:54 | 49.91911 | 12.76050 | 35795 ft | 431 kts | 297° |
| 2026-05-06 12:54 | 49.95159 | 12.68203 | 35793 ft | 433 kts | 297° |
| 2026-05-06 12:55 | 49.98410 | 12.60323 | 35792 ft | 434 kts | 297° |
| 2026-05-06 12:55 | 50.01664 | 12.52413 | 35781 ft | 434 kts | 297° |
| 2026-05-06 12:56 | 50.04910 | 12.44503 | 35787 ft | 434 kts | 297° |
| 2026-05-06 12:56 | 50.07583 | 12.36217 | 35782 ft | 424 kts | 284° |
| 2026-05-06 12:57 | 50.09450 | 12.27524 | 35791 ft | 423 kts | 283° |
| 2026-05-06 12:57 | 50.11290 | 12.18811 | 35794 ft | 424 kts | 283° |
| 2026-05-06 12:58 | 50.13153 | 12.10098 | 35786 ft | 424 kts | 283° |
| 2026-05-06 12:58 | 50.15026 | 12.01391 | 35807 ft | 423 kts | 283° |
| 2026-05-06 12:59 | 50.16895 | 11.92694 | 35804 ft | 423 kts | 283° |
| 2026-05-06 12:59 | 50.18743 | 11.84057 | 35801 ft | 422 kts | 283° |
| 2026-05-06 13:00 | 50.20592 | 11.75373 | 35807 ft | 422 kts | 283° |
| 2026-05-06 13:00 | 50.22436 | 11.66676 | 35799 ft | 421 kts | 283° |
| 2026-05-06 13:01 | 50.24270 | 11.57990 | 35803 ft | 421 kts | 283° |
| 2026-05-06 13:01 | 50.26099 | 11.49288 | 35796 ft | 421 kts | 283° |
| 2026-05-06 13:02 | 50.27920 | 11.40587 | 35791 ft | 421 kts | 283° |
| 2026-05-06 13:02 | 50.29735 | 11.31877 | 35794 ft | 422 kts | 283° |
| 2026-05-06 13:03 | 50.31551 | 11.23121 | 35782 ft | 424 kts | 283° |
| 2026-05-06 13:03 | 50.33363 | 11.14353 | 35787 ft | 423 kts | 283° |
| 2026-05-06 13:04 | 50.35169 | 11.05571 | 35789 ft | 424 kts | 283° |
| 2026-05-06 13:04 | 50.36970 | 10.96775 | 35779 ft | 425 kts | 283° |
| 2026-05-06 13:05 | 50.38770 | 10.87943 | 35782 ft | 427 kts | 283° |
| 2026-05-06 13:05 | 50.40572 | 10.79061 | 35776 ft | 428 kts | 283° |
| 2026-05-06 13:06 | 50.42358 | 10.70223 | 35777 ft | 428 kts | 283° |
| 2026-05-06 13:06 | 50.44147 | 10.61330 | 35773 ft | 427 kts | 282° |
| 2026-05-06 13:07 | 50.45927 | 10.52441 | 35771 ft | 427 kts | 282° |
| 2026-05-06 13:07 | 50.47705 | 10.43543 | 35767 ft | 428 kts | 283° |
| 2026-05-06 13:08 | 50.49503 | 10.34598 | 35765 ft | 431 kts | 283° |
| 2026-05-06 13:08 | 50.51303 | 10.25621 | 35752 ft | 431 kts | 283° |
| 2026-05-06 13:09 | 50.53093 | 10.16649 | 35748 ft | 430 kts | 283° |
| 2026-05-06 13:09 | 50.54872 | 10.07680 | 35750 ft | 429 kts | 283° |
| 2026-05-06 13:10 | 50.56643 | 9.98708 | 35741 ft | 429 kts | 283° |
| 2026-05-06 13:10 | 50.58404 | 9.89743 | 35743 ft | 429 kts | 283° |
| 2026-05-06 13:11 | 50.60160 | 9.80766 | 35732 ft | 429 kts | 283° |
| 2026-05-06 13:11 | 50.61908 | 9.71785 | 35731 ft | 429 kts | 283° |
| 2026-05-06 13:12 | 50.63648 | 9.62799 | 35733 ft | 429 kts | 283° |
| 2026-05-06 13:12 | 50.65384 | 9.53800 | 35738 ft | 429 kts | 283° |
| 2026-05-06 13:13 | 50.67112 | 9.44794 | 35746 ft | 430 kts | 283° |
| 2026-05-06 13:13 | 50.68840 | 9.35744 | 35746 ft | 432 kts | 283° |
| 2026-05-06 13:14 | 50.70569 | 9.26656 | 35761 ft | 432 kts | 283° |
| 2026-05-06 13:14 | 50.72261 | 9.17567 | 35744 ft | 430 kts | 281° |
| 2026-05-06 13:15 | 50.73681 | 9.08410 | 35748 ft | 430 kts | 279° |
| 2026-05-06 13:15 | 50.75028 | 8.99210 | 35749 ft | 431 kts | 279° |
| 2026-05-06 13:16 | 50.76395 | 8.89992 | 35747 ft | 431 kts | 279° |
| 2026-05-06 13:16 | 50.77776 | 8.80774 | 35750 ft | 431 kts | 280° |
| 2026-05-06 13:17 | 50.79155 | 8.71578 | 35753 ft | 430 kts | 280° |
| 2026-05-06 13:17 | 50.80525 | 8.62389 | 35760 ft | 429 kts | 279° |
| 2026-05-06 13:18 | 50.81891 | 8.53170 | 35772 ft | 431 kts | 279° |
| 2026-05-06 13:18 | 50.83254 | 8.43909 | 35773 ft | 433 kts | 279° |
| 2026-05-06 13:19 | 50.84615 | 8.34613 | 35775 ft | 434 kts | 279° |
| 2026-05-06 13:19 | 50.85971 | 8.25293 | 35778 ft | 435 kts | 279° |
| 2026-05-06 13:20 | 50.87315 | 8.16002 | 35780 ft | 436 kts | 279° |
| 2026-05-06 13:20 | 50.88668 | 8.06591 | 35785 ft | 435 kts | 279° |
| 2026-05-06 13:21 | 50.90003 | 7.97246 | 35780 ft | 435 kts | 279° |
| 2026-05-06 13:21 | 50.91329 | 7.87909 | 35776 ft | 434 kts | 279° |
| 2026-05-06 13:22 | 50.92636 | 7.78650 | 35788 ft | 433 kts | 279° |
| 2026-05-06 13:22 | 50.93943 | 7.69325 | 35785 ft | 433 kts | 279° |
| 2026-05-06 13:23 | 50.95240 | 7.60021 | 35811 ft | 432 kts | 279° |
| 2026-05-06 13:23 | 50.96528 | 7.50716 | 35811 ft | 432 kts | 279° |
| 2026-05-06 13:24 | 50.97810 | 7.41399 | 35832 ft | 432 kts | 279° |
| 2026-05-06 13:24 | 50.99082 | 7.32097 | 35830 ft | 431 kts | 279° |
| 2026-05-06 13:25 | 51.00347 | 7.22786 | 35826 ft | 432 kts | 279° |
| 2026-05-06 13:25 | 51.01606 | 7.13461 | 35827 ft | 432 kts | 279° |
| 2026-05-06 13:26 | 51.02860 | 7.04115 | 35820 ft | 433 kts | 279° |
| 2026-05-06 13:26 | 51.04107 | 6.94753 | 35833 ft | 434 kts | 279° |
| 2026-05-06 13:27 | 51.05352 | 6.85350 | 35839 ft | 435 kts | 279° |
| 2026-05-06 13:27 | 51.06590 | 6.75936 | 35844 ft | 435 kts | 279° |
| 2026-05-06 13:28 | 51.07821 | 6.66513 | 35841 ft | 435 kts | 279° |
| 2026-05-06 13:28 | 51.09042 | 6.57109 | 35851 ft | 434 kts | 279° |
| 2026-05-06 13:29 | 51.10254 | 6.47710 | 35855 ft | 434 kts | 279° |
| 2026-05-06 13:29 | 51.11458 | 6.38299 | 35860 ft | 434 kts | 279° |
| 2026-05-06 13:30 | 51.12655 | 6.28886 | 35842 ft | 434 kts | 279° |
| 2026-05-06 13:30 | 51.13846 | 6.19464 | 35851 ft | 433 kts | 279° |
| 2026-05-06 13:31 | 51.15024 | 6.10068 | 35851 ft | 433 kts | 279° |
| 2026-05-06 13:31 | 51.16196 | 6.00658 | 35852 ft | 433 kts | 279° |
| 2026-05-06 13:32 | 51.17362 | 5.91250 | 35858 ft | 433 kts | 279° |
| 2026-05-06 13:32 | 51.18927 | 5.81966 | 35855 ft | 437 kts | 291° |
| 2026-05-06 13:33 | 51.21915 | 5.73486 | 35876 ft | 442 kts | 299° |
| 2026-05-06 13:33 | 51.25154 | 5.65113 | 35859 ft | 443 kts | 299° |
| 2026-05-06 13:34 | 51.28360 | 5.56712 | 35875 ft | 443 kts | 299° |
| 2026-05-06 13:34 | 51.31530 | 5.48275 | 35883 ft | 442 kts | 298° |
| 2026-05-06 13:35 | 51.34680 | 5.39830 | 35882 ft | 442 kts | 298° |
| 2026-05-06 13:35 | 51.37823 | 5.31376 | 35886 ft | 442 kts | 298° |
| 2026-05-06 13:36 | 51.40937 | 5.22974 | 35894 ft | 442 kts | 298° |
| 2026-05-06 13:36 | 51.44065 | 5.14508 | 35884 ft | 441 kts | 298° |
| 2026-05-06 13:37 | 51.47185 | 5.06035 | 35881 ft | 441 kts | 298° |
| 2026-05-06 13:37 | 51.50293 | 4.97567 | 35887 ft | 440 kts | 298° |
| 2026-05-06 13:38 | 51.53392 | 4.89097 | 35885 ft | 440 kts | 298° |
| 2026-05-06 13:38 | 51.55960 | 4.82058 | 35888 ft | 439 kts | 298° |
| 2026-05-06 13:39 | 51.58675 | 4.73309 | 35894 ft | 436 kts | 290° |
| 2026-05-06 13:39 | 51.60905 | 4.64248 | 35876 ft | 436 kts | 289° |
| 2026-05-06 13:40 | 51.63489 | 4.53623 | 35883 ft | 436 kts | 290° |
| 2026-05-06 13:40 | 51.65353 | 4.46073 | 35882 ft | 436 kts | 290° |
| 2026-05-06 13:41 | 51.67604 | 4.37015 | 35878 ft | 435 kts | 290° |
| 2026-05-06 13:41 | 51.69848 | 4.27962 | 35883 ft | 435 kts | 290° |
| 2026-05-06 13:42 | 51.72085 | 4.18902 | 35885 ft | 435 kts | 290° |
| 2026-05-06 13:42 | 51.74314 | 4.09835 | 35891 ft | 434 kts | 290° |
| 2026-05-06 13:43 | 51.76528 | 4.00788 | 35882 ft | 429 kts | 289° |
| 2026-05-06 13:43 | 51.78694 | 3.91903 | 35900 ft | 423 kts | 289° |
| 2026-05-06 13:44 | 51.80828 | 3.83110 | 35666 ft | 419 kts | 289° |
| 2026-05-06 13:44 | 51.81882 | 3.78757 | 35398 ft | 412 kts | 289° |
| 2026-05-06 13:44 | 51.82922 | 3.74457 | 34992 ft | 409 kts | 289° |
| 2026-05-06 13:44 | 51.83950 | 3.70192 | 34639 ft | 406 kts | 289° |
| 2026-05-06 13:45 | 51.84970 | 3.65953 | 34263 ft | 403 kts | 289° |
| 2026-05-06 13:45 | 51.86982 | 3.57559 | 33445 ft | 398 kts | 289° |
| 2026-05-06 13:45 | 51.87975 | 3.53405 | 33038 ft | 395 kts | 289° |
| 2026-05-06 13:46 | 51.88961 | 3.49276 | 32659 ft | 391 kts | 289° |
| 2026-05-06 13:46 | 51.89936 | 3.45186 | 32291 ft | 388 kts | 289° |
| 2026-05-06 13:46 | 51.90900 | 3.41128 | 31924 ft | 384 kts | 289° |
| 2026-05-06 13:46 | 51.91855 | 3.37106 | 31557 ft | 382 kts | 289° |
| 2026-05-06 13:47 | 51.92803 | 3.33112 | 31201 ft | 379 kts | 288° |
| 2026-05-06 13:47 | 51.93744 | 3.29141 | 30848 ft | 376 kts | 289° |
| 2026-05-06 13:47 | 51.94673 | 3.25201 | 30503 ft | 373 kts | 289° |
| 2026-05-06 13:47 | 51.95585 | 3.21283 | 30149 ft | 370 kts | 286° |
| 2026-05-06 13:48 | 51.96164 | 3.17304 | 29764 ft | 365 kts | 276° |
| 2026-05-06 13:48 | 51.96329 | 3.13181 | 29381 ft | 360 kts | 265° |
| 2026-05-06 13:48 | 51.96119 | 3.09223 | 29052 ft | 354 kts | 263° |
| 2026-05-06 13:48 | 51.95847 | 3.05269 | 28661 ft | 352 kts | 262° |
| 2026-05-06 13:49 | 51.95567 | 3.01353 | 28308 ft | 348 kts | 262° |
| 2026-05-06 13:49 | 51.95296 | 2.97476 | 27959 ft | 345 kts | 262° |
| 2026-05-06 13:49 | 51.95032 | 2.93631 | 27598 ft | 342 kts | 262° |
| 2026-05-06 13:49 | 51.94775 | 2.89813 | 27247 ft | 339 kts | 263° |
| 2026-05-06 13:50 | 51.94521 | 2.86022 | 26904 ft | 337 kts | 263° |
| 2026-05-06 13:50 | 51.94271 | 2.82268 | 26560 ft | 334 kts | 263° |
| 2026-05-06 13:50 | 51.94021 | 2.78531 | 26218 ft | 332 kts | 262° |
| 2026-05-06 13:50 | 51.93774 | 2.74832 | 25884 ft | 330 kts | 262° |
| 2026-05-06 13:51 | 51.93525 | 2.71153 | 25552 ft | 328 kts | 262° |
| 2026-05-06 13:51 | 51.93277 | 2.67494 | 25219 ft | 326 kts | 262° |
| 2026-05-06 13:51 | 51.93028 | 2.63852 | 24896 ft | 325 kts | 262° |
| 2026-05-06 13:51 | 51.92776 | 2.60191 | 24576 ft | 334 kts | 262° |
| 2026-05-06 13:52 | 51.92551 | 2.56312 | 24239 ft | 360 kts | 268° |
| 2026-05-06 13:52 | 51.92680 | 2.52176 | 24038 ft | 371 kts | 273° |
| 2026-05-06 13:52 | 51.92911 | 2.48008 | 23793 ft | 372 kts | 274° |
| 2026-05-06 13:52 | 51.93162 | 2.43849 | 23550 ft | 369 kts | 274° |
| 2026-05-06 13:53 | 51.93409 | 2.39745 | 23272 ft | 364 kts | 274° |
| 2026-05-06 13:53 | 51.93645 | 2.35683 | 22989 ft | 362 kts | 274° |
| 2026-05-06 13:53 | 51.93871 | 2.31629 | 22718 ft | 361 kts | 274° |
| 2026-05-06 13:53 | 51.94090 | 2.27583 | 22443 ft | 360 kts | 274° |
| 2026-05-06 13:54 | 51.94304 | 2.23544 | 22177 ft | 359 kts | 274° |
| 2026-05-06 13:54 | 51.94514 | 2.19521 | 21909 ft | 358 kts | 274° |
| 2026-05-06 13:54 | 51.94720 | 2.15504 | 21641 ft | 357 kts | 274° |
| 2026-05-06 13:54 | 51.94924 | 2.11508 | 21360 ft | 355 kts | 274° |
| 2026-05-06 13:55 | 51.95124 | 2.07533 | 21010 ft | 354 kts | 274° |
| 2026-05-06 13:55 | 51.95323 | 2.03564 | 20642 ft | 352 kts | 274° |
| 2026-05-06 13:55 | 51.95516 | 1.99683 | 20286 ft | 349 kts | 274° |
| 2026-05-06 13:55 | 51.95713 | 1.95710 | 19922 ft | 347 kts | 274° |
| 2026-05-06 13:56 | 51.95904 | 1.91820 | 19567 ft | 346 kts | 274° |
| 2026-05-06 13:56 | 51.96092 | 1.87943 | 19211 ft | 344 kts | 274° |
| 2026-05-06 13:56 | 51.96279 | 1.84086 | 18861 ft | 343 kts | 274° |
| 2026-05-06 13:56 | 51.96461 | 1.80294 | 18501 ft | 342 kts | 274° |
| 2026-05-06 13:57 | 51.96645 | 1.76456 | 18140 ft | 341 kts | 274° |
| 2026-05-06 13:57 | 51.96829 | 1.72571 | 17742 ft | 343 kts | 274° |
| 2026-05-06 13:57 | 51.97014 | 1.68636 | 17394 ft | 367 kts | 274° |
| 2026-05-06 13:57 | 51.97211 | 1.64419 | 16971 ft | 371 kts | 274° |
| 2026-05-06 13:58 | 51.97402 | 1.60305 | 16569 ft | 369 kts | 274° |
| 2026-05-06 13:58 | 51.97592 | 1.56181 | 16174 ft | 365 kts | 274° |
| 2026-05-06 13:58 | 51.97779 | 1.52091 | 15789 ft | 362 kts | 274° |
| 2026-05-06 13:58 | 51.97962 | 1.48046 | 15418 ft | 358 kts | 274° |
| 2026-05-06 13:59 | 51.98142 | 1.44042 | 15055 ft | 355 kts | 274° |
| 2026-05-06 13:59 | 51.98323 | 1.40002 | 14680 ft | 353 kts | 274° |
| 2026-05-06 13:59 | 51.98498 | 1.36041 | 14319 ft | 351 kts | 274° |
| 2026-05-06 13:59 | 51.98670 | 1.32144 | 13959 ft | 350 kts | 274° |
| 2026-05-06 14:00 | 51.98841 | 1.28222 | 13577 ft | 348 kts | 274° |
| 2026-05-06 14:00 | 51.99012 | 1.24275 | 13180 ft | 344 kts | 274° |
| 2026-05-06 14:00 | 51.99177 | 1.20437 | 12805 ft | 339 kts | 274° |
| 2026-05-06 14:00 | 51.99338 | 1.16656 | 12462 ft | 333 kts | 274° |
| 2026-05-06 14:01 | 51.99493 | 1.12983 | 12124 ft | 329 kts | 274° |
| 2026-05-06 14:01 | 51.99649 | 1.09260 | 11769 ft | 325 kts | 274° |
| 2026-05-06 14:01 | 51.99800 | 1.05633 | 11442 ft | 320 kts | 275° |
| 2026-05-06 14:01 | 51.99947 | 1.02101 | 11114 ft | 316 kts | 274° |
| 2026-05-06 14:02 | 52.00092 | 0.98559 | 10787 ft | 313 kts | 275° |
| 2026-05-06 14:02 | 52.00237 | 0.95015 | 10463 ft | 309 kts | 275° |
| 2026-05-06 14:02 | 52.00375 | 0.91596 | 10150 ft | 306 kts | 275° |
| 2026-05-06 14:02 | 52.00443 | 0.88182 | 9996 ft | 298 kts | 272° |
| 2026-05-06 14:03 | 52.00450 | 0.84841 | 9703 ft | 295 kts | 271° |
| 2026-05-06 14:03 | 52.00444 | 0.82099 | 9427 ft | 293 kts | 271° |
| 2026-05-06 14:03 | 52.00436 | 0.78808 | 9101 ft | 290 kts | 271° |
| 2026-05-06 14:03 | 52.00426 | 0.75548 | 8808 ft | 288 kts | 271° |
| 2026-05-06 14:04 | 52.00415 | 0.72321 | 8517 ft | 285 kts | 271° |
| 2026-05-06 14:04 | 52.00406 | 0.69110 | 8293 ft | 281 kts | 271° |
| 2026-05-06 14:04 | 52.00397 | 0.65951 | 8181 ft | 280 kts | 271° |
| 2026-05-06 14:04 | 52.00389 | 0.62807 | 8067 ft | 278 kts | 271° |
| 2026-05-06 14:05 | 52.00380 | 0.59674 | 7978 ft | 276 kts | 271° |
| 2026-05-06 14:05 | 52.00373 | 0.56483 | 7434 ft | 292 kts | 271° |
| 2026-05-06 14:05 | 52.00370 | 0.53173 | 6973 ft | 297 kts | 271° |
| 2026-05-06 14:05 | 52.00368 | 0.49785 | 6467 ft | 301 kts | 271° |
| 2026-05-06 14:06 | 52.00370 | 0.46417 | 6099 ft | 292 kts | 271° |
| 2026-05-06 14:06 | 52.00370 | 0.43182 | 6016 ft | 283 kts | 271° |
| 2026-05-06 14:06 | 52.00370 | 0.40000 | 5997 ft | 281 kts | 271° |
| 2026-05-06 14:06 | 52.00367 | 0.36835 | 6000 ft | 280 kts | 271° |
| 2026-05-06 14:07 | 52.00363 | 0.33661 | 6003 ft | 281 kts | 271° |
| 2026-05-06 14:07 | 52.00361 | 0.30493 | 5988 ft | 281 kts | 271° |
| 2026-05-06 14:07 | 52.00182 | 0.27371 | 5969 ft | 280 kts | 250° |
| 2026-05-06 14:07 | 51.99125 | 0.24770 | 6013 ft | 276 kts | 225° |
| 2026-05-06 14:08 | 51.97723 | 0.22628 | 5994 ft | 276 kts | 221° |
| 2026-05-06 14:08 | 51.96294 | 0.20564 | 5782 ft | 279 kts | 221° |
| 2026-05-06 14:08 | 51.94819 | 0.18465 | 5343 ft | 284 kts | 221° |
| 2026-05-06 14:08 | 51.93317 | 0.16355 | 4952 ft | 287 kts | 221° |
| 2026-05-06 14:09 | 51.91791 | 0.14230 | 4513 ft | 290 kts | 221° |
| 2026-05-06 14:09 | 51.90247 | 0.12109 | 4098 ft | 292 kts | 221° |
| 2026-05-06 14:09 | 51.88683 | 0.09995 | 3690 ft | 292 kts | 221° |
| 2026-05-06 14:09 | 51.87129 | 0.07926 | 3280 ft | 287 kts | 221° |
| 2026-05-06 14:10 | 51.85601 | 0.05916 | 2997 ft | 276 kts | 221° |
| 2026-05-06 14:10 | 51.84154 | 0.04038 | 2958 ft | 260 kts | 221° |
| 2026-05-06 14:10 | 51.82787 | 0.02233 | 2872 ft | 248 kts | 222° |
| 2026-05-06 14:10 | 51.81492 | 0.00466 | 2833 ft | 241 kts | 223° |
| 2026-05-06 14:11 | 51.80229 | -0.01260 | 2788 ft | 235 kts | 223° |
| 2026-05-06 14:11 | 51.78956 | -0.02901 | 2777 ft | 234 kts | 210° |
| 2026-05-06 14:11 | 51.77374 | -0.03385 | 2730 ft | 239 kts | 168° |
| 2026-05-06 14:11 | 51.75918 | -0.02178 | 2661 ft | 233 kts | 129° |
| 2026-05-06 14:12 | 51.75300 | 0.00026 | 2540 ft | 206 kts | 85° |
| 2026-05-06 14:12 | 51.75545 | 0.02147 | 2551 ft | 186 kts | 71° |
| 2026-05-06 14:12 | 51.75945 | 0.04090 | 2470 ft | 179 kts | 53° |
| 2026-05-06 14:12 | 51.76748 | 0.05570 | 2513 ft | 176 kts | 44° |
| 2026-05-06 14:13 | 51.77598 | 0.07005 | 2509 ft | 176 kts | 41° |
| 2026-05-06 14:13 | 51.78480 | 0.08377 | 2498 ft | 176 kts | 40° |
| 2026-05-06 14:13 | 51.79365 | 0.09722 | 2478 ft | 174 kts | 39° |
| 2026-05-06 14:13 | 51.80246 | 0.11049 | 2377 ft | 178 kts | 39° |
| 2026-05-06 14:14 | 51.81141 | 0.12400 | 2163 ft | 175 kts | 39° |
| 2026-05-06 14:14 | 51.82015 | 0.13718 | 1966 ft | 168 kts | 39° |
| 2026-05-06 14:14 | 51.82851 | 0.14980 | 1731 ft | 160 kts | 39° |
| 2026-05-06 14:14 | 51.83635 | 0.16160 | 1549 ft | 147 kts | 39° |
| 2026-05-06 14:15 | 51.84394 | 0.17302 | 1312 ft | 149 kts | 39° |
| 2026-05-06 14:15 | 51.85131 | 0.18421 | 1076 ft | 143 kts | 39° |
| 2026-05-06 14:15 | 51.85848 | 0.19490 | 905 ft | 141 kts | 39° |
| 2026-05-06 14:15 | 51.86580 | 0.20579 | 696 ft | 144 kts | 40° |
| 2026-05-06 14:16 | 51.87310 | 0.21695 | 472 ft | 145 kts | 40° |
| 2026-05-06 14:16 | 51.88035 | 0.22781 | 338 ft | 135 kts | 42° |
| 2026-05-06 14:16 | 51.88563 | 0.23574 | 339 ft | 71 kts | 43° |
| 2026-05-06 14:16 | 51.88810 | 0.23977 | 333 ft | 34 kts | 58° |
| 2026-05-06 14:17 | 51.88892 | 0.24292 | 350 ft | 27 kts | 74° |
| 2026-05-06 14:17 | 51.88917 | 0.24478 | 347 ft | 13 kts | 106° |
| 2026-05-06 14:17 | 51.88861 | 0.24590 | 352 ft | 13 kts | 133° |
| 2026-05-06 14:17 | 51.88815 | 0.24705 | 353 ft | 12 kts | 88° |
| 2026-05-06 14:18 | 51.88866 | 0.24812 | 355 ft | 12 kts | 44° |
| 2026-05-06 14:18 | 51.88935 | 0.24916 | 348 ft | 15 kts | 42° |
| 2026-05-06 14:18 | 51.89020 | 0.25042 | 352 ft | 18 kts | 45° |
| 2026-05-06 14:18 | 51.89114 | 0.25185 | 351 ft | 18 kts | 43° |
| 2026-05-06 14:19 | 51.89175 | 0.25305 | 348 ft | 12 kts | 88° |
| 2026-05-06 14:19 | 51.89130 | 0.25409 | 351 ft | 11 kts | 132° |
| 2026-05-06 14:19 | 51.89110 | 0.25482 | 348 ft | 6 kts | 59° |
| 2026-05-06 14:19 | 51.89129 | 0.25524 | 356 ft | 2 kts | 54° |
| 2026-05-06 14:20 | 51.89129 | 0.25525 | 356 ft | 0 kts | 54° |